createdAt,value
2022-08-09T00:00:04.161Z,44.4
2022-08-09T00:01:00.451Z,44.6
2022-08-09T00:02:00.450Z,44.7
2022-08-09T00:03:00.423Z,44.9
2022-08-09T00:04:10.287Z,44.9
2022-08-09T00:05:03.683Z,45.0
2022-08-09T00:06:19.117Z,45.0
2022-08-09T00:07:00.358Z,45.0
2022-08-09T00:08:01.469Z,45.1
2022-08-09T00:09:00.436Z,44.8
2022-08-09T00:10:00.414Z,44.6
2022-08-09T00:11:00.350Z,44.5
2022-08-09T00:12:04.475Z,44.7
2022-08-09T00:13:00.339Z,44.8
2022-08-09T00:14:00.313Z,45.0
2022-08-09T00:15:06.621Z,44.8
2022-08-09T00:16:02.414Z,44.7
2022-08-09T00:17:00.441Z,44.6
2022-08-09T00:18:04.337Z,44.6
2022-08-09T00:19:00.437Z,44.4
2022-08-09T00:20:00.318Z,44.5
2022-08-09T00:21:00.411Z,44.4
2022-08-09T00:22:00.425Z,44.6
2022-08-09T00:23:08.371Z,44.7
2022-08-09T00:24:00.336Z,44.7
2022-08-09T00:25:00.432Z,44.8
2022-08-09T00:26:00.330Z,44.5
2022-08-09T00:27:00.322Z,44.4
2022-08-09T00:28:00.327Z,44.3
2022-08-09T00:29:00.300Z,44.3
2022-08-09T00:30:16.430Z,44.0
2022-08-09T00:31:00.305Z,43.9
2022-08-09T00:32:01.166Z,44.0
2022-08-09T00:33:00.383Z,43.9
2022-08-09T00:34:00.300Z,43.9
2022-08-09T00:35:00.406Z,43.9
2022-08-09T00:36:00.310Z,43.9
2022-08-09T00:37:00.311Z,43.9
2022-08-09T00:38:00.314Z,44.0
2022-08-09T00:39:00.335Z,44.0
2022-08-09T00:40:12.838Z,44.3
2022-08-09T00:41:00.480Z,44.5
2022-08-09T00:44:09.845Z,44.8
2022-08-09T00:44:16.564Z,45.0
2022-08-09T00:44:19.482Z,45.2
2022-08-09T00:45:03.547Z,45.5
2022-08-09T00:46:00.354Z,45.6
2022-08-09T00:47:04.892Z,45.7
2022-08-09T00:48:00.399Z,45.9
2022-08-09T00:49:00.319Z,46.0
2022-08-09T00:50:00.301Z,45.9
2022-08-09T00:51:00.302Z,45.7
2022-08-09T00:52:02.057Z,45.8
2022-08-09T00:53:00.313Z,45.7
2022-08-09T00:54:00.417Z,45.6
2022-08-09T00:55:00.962Z,45.6
2022-08-09T00:56:04.512Z,45.6
2022-08-09T00:57:00.295Z,45.6
2022-08-09T00:58:00.395Z,45.8
2022-08-09T00:59:00.325Z,45.9
2022-08-09T01:00:02.833Z,46.0
2022-08-09T01:01:00.486Z,46.3
2022-08-09T01:02:00.332Z,46.4
2022-08-09T01:03:00.380Z,46.4
2022-08-09T01:04:00.420Z,46.5
2022-08-09T01:05:00.308Z,46.7
2022-08-09T01:06:03.837Z,46.8
2022-08-09T01:07:00.303Z,46.7
2022-08-09T01:08:01.447Z,46.6
2022-08-09T01:09:00.306Z,46.3
2022-08-09T01:10:00.369Z,46.0
2022-08-09T01:11:00.290Z,46.0
2022-08-09T01:12:00.307Z,46.5
2022-08-09T01:13:00.411Z,46.9
2022-08-09T01:14:01.657Z,47.1
2022-08-09T01:15:01.020Z,47.0
2022-08-09T01:16:00.365Z,47.4
2022-08-09T01:17:00.380Z,47.4
2022-08-09T01:18:00.320Z,47.2
2022-08-09T01:19:02.475Z,47.0
2022-08-09T01:20:02.360Z,47.0
2022-08-09T01:21:00.309Z,46.7
2022-08-09T01:22:00.474Z,46.7
2022-08-09T01:23:00.313Z,46.5
2022-08-09T01:24:03.596Z,46.3
2022-08-09T01:25:00.707Z,46.2
2022-08-09T01:26:00.308Z,46.4
2022-08-09T01:27:00.301Z,46.0
2022-08-09T01:28:00.658Z,45.7
2022-08-09T01:29:00.297Z,45.8
2022-08-09T01:30:00.515Z,45.9
2022-08-09T01:31:00.297Z,46.1
2022-08-09T01:32:31.430Z,47.9
2022-08-09T01:33:00.413Z,48.2
2022-08-09T01:34:00.407Z,49.2
2022-08-09T01:35:00.327Z,49.5
2022-08-09T01:36:00.297Z,49.8
2022-08-09T01:37:00.299Z,50.8
2022-08-09T01:38:09.316Z,50.7
2022-08-09T01:39:00.291Z,51.1
2022-08-09T01:40:00.434Z,51.2
2022-08-09T01:41:05.380Z,51.5
2022-08-09T01:42:04.007Z,51.4
2022-08-09T01:43:00.314Z,52.0
2022-08-09T01:44:00.335Z,52.3
2022-08-09T01:45:00.301Z,52.5
2022-08-09T01:46:00.404Z,52.6
2022-08-09T01:47:00.296Z,52.5
2022-08-09T01:48:00.396Z,52.4
2022-08-09T01:49:09.421Z,52.2
2022-08-09T01:50:00.318Z,52.0
2022-08-09T01:51:00.309Z,52.0
2022-08-09T01:52:07.346Z,51.8
2022-08-09T01:53:00.328Z,52.3
2022-08-09T01:54:00.411Z,52.3
2022-08-09T01:55:00.314Z,52.4
2022-08-09T01:56:00.304Z,52.8
2022-08-09T01:57:00.303Z,52.8
2022-08-09T01:58:00.342Z,52.7
2022-08-09T01:59:00.300Z,52.6
2022-08-09T02:00:08.834Z,52.7
2022-08-09T02:01:00.342Z,52.7
2022-08-09T02:02:01.055Z,52.3
2022-08-09T02:03:00.412Z,52.2
2022-08-09T02:04:00.327Z,52.1
2022-08-09T02:05:04.536Z,51.8
2022-08-09T02:06:06.199Z,52.0
2022-08-09T02:07:01.984Z,51.9
2022-08-09T02:08:39.590Z,52.2
2022-08-09T02:09:00.425Z,52.1
2022-08-09T02:10:01.239Z,52.1
2022-08-09T02:11:00.310Z,51.9
2022-08-09T02:12:00.403Z,51.8
2022-08-09T02:13:00.325Z,51.8
2022-08-09T02:14:06.409Z,51.7
2022-08-09T02:15:00.331Z,51.5
2022-08-09T02:16:00.305Z,51.4
2022-08-09T02:17:59.329Z,51.3
2022-08-09T02:18:10.353Z,50.7
2022-08-09T02:19:00.300Z,50.5
2022-08-09T02:20:02.097Z,50.4
2022-08-09T02:21:00.422Z,50.3
2022-08-09T02:22:00.320Z,50.3
2022-08-09T02:23:00.313Z,50.5
2022-08-09T02:24:00.431Z,50.5
2022-08-09T02:25:00.385Z,50.2
2022-08-09T02:26:00.306Z,49.9
2022-08-09T02:27:00.299Z,49.8
2022-08-09T02:28:03.711Z,49.4
2022-08-09T02:29:00.397Z,49.3
2022-08-09T02:30:01.662Z,49.3
2022-08-09T02:31:00.467Z,49.3
2022-08-09T02:32:00.320Z,49.9
2022-08-09T02:33:00.336Z,50.0
2022-08-09T02:34:06.937Z,50.3
2022-08-09T02:35:00.329Z,50.6
2022-08-09T02:36:03.431Z,50.6
2022-08-09T02:37:00.287Z,50.6
2022-08-09T02:38:00.346Z,50.6
2022-08-09T02:39:00.407Z,50.4
2022-08-09T02:40:01.546Z,50.5
2022-08-09T02:41:00.350Z,50.7
2022-08-09T02:42:00.296Z,50.8
2022-08-09T02:43:00.346Z,50.5
2022-08-09T02:44:00.309Z,51.1
2022-08-09T02:45:00.385Z,51.6
2022-08-09T02:46:00.299Z,51.7
2022-08-09T02:47:00.310Z,51.9
2022-08-09T02:48:00.294Z,52.2
2022-08-09T02:49:00.307Z,52.8
2022-08-09T02:50:02.107Z,52.7
2022-08-09T02:51:01.671Z,52.7
2022-08-09T02:52:00.320Z,52.7
2022-08-09T02:53:00.316Z,52.6
2022-08-09T02:54:01.572Z,52.6
2022-08-09T02:55:00.325Z,52.2
2022-08-09T02:56:01.017Z,52.3
2022-08-09T02:57:00.390Z,52.2
2022-08-09T02:58:32.723Z,52.4
2022-08-09T02:59:00.284Z,52.4
2022-08-09T03:00:25.900Z,52.3
2022-08-09T03:01:04.493Z,52.3
2022-08-09T03:02:06.499Z,52.3
2022-08-09T03:03:00.799Z,52.2
2022-08-09T03:04:18.011Z,52.3
2022-08-09T03:05:00.432Z,52.2
2022-08-09T03:06:00.406Z,52.1
2022-08-09T03:07:13.975Z,51.8
2022-08-09T03:08:00.371Z,51.5
2022-08-09T03:09:00.383Z,51.3
2022-08-09T03:10:00.505Z,51.1
2022-08-09T03:11:00.456Z,50.9
2022-08-09T03:12:06.012Z,50.7
2022-08-09T03:13:00.347Z,50.5
2022-08-09T03:14:01.789Z,50.2
2022-08-09T03:15:00.282Z,50.0
2022-08-09T03:16:06.825Z,49.7
2022-08-09T03:17:01.911Z,49.7
2022-08-09T03:18:00.477Z,49.6
2022-08-09T03:19:01.826Z,49.7
2022-08-09T03:20:05.360Z,49.6
2022-08-09T03:21:00.313Z,49.5
2022-08-09T03:22:00.311Z,49.5
2022-08-09T03:23:15.030Z,49.3
2022-08-09T03:24:04.406Z,49.1
2022-08-09T03:25:06.455Z,49.0
2022-08-09T03:26:03.630Z,48.8
2022-08-09T03:27:00.301Z,48.7
2022-08-09T03:28:00.312Z,48.4
2022-08-09T03:29:00.325Z,47.8
2022-08-09T03:30:01.332Z,47.6
2022-08-09T03:31:00.474Z,47.5
2022-08-09T03:32:00.927Z,47.3
2022-08-09T03:33:00.314Z,47.3
2022-08-09T03:34:00.306Z,46.6
2022-08-09T03:35:00.365Z,45.9
2022-08-09T03:36:12.614Z,45.9
2022-08-09T03:37:10.569Z,45.5
2022-08-09T03:38:00.300Z,45.7
2022-08-09T03:39:00.310Z,45.8
2022-08-09T03:40:00.368Z,45.9
2022-08-09T03:41:00.337Z,45.7
2022-08-09T03:42:06.774Z,45.5
2022-08-09T03:43:00.349Z,45.3
2022-08-09T03:44:07.944Z,45.2
2022-08-09T03:45:00.433Z,45.0
2022-08-09T03:46:05.254Z,45.0
2022-08-09T03:47:00.404Z,45.0
2022-08-09T03:48:00.313Z,44.9
2022-08-09T03:49:04.025Z,44.8
2022-08-09T03:50:00.314Z,44.7
2022-08-09T03:51:00.343Z,44.5
2022-08-09T03:52:03.746Z,44.3
2022-08-09T03:53:00.418Z,44.4
2022-08-09T03:54:00.383Z,44.8
2022-08-09T03:55:00.297Z,44.9
2022-08-09T03:56:00.431Z,44.8
2022-08-09T03:57:00.292Z,44.5
2022-08-09T03:58:09.712Z,44.2
2022-08-09T03:59:00.375Z,44.2
2022-08-09T04:00:00.477Z,44.4
2022-08-09T04:01:00.315Z,44.2
2022-08-09T04:02:00.397Z,43.9
2022-08-09T04:03:00.323Z,43.7
2022-08-09T04:04:03.023Z,44.0
2022-08-09T04:05:00.773Z,43.9
2022-08-09T04:06:00.317Z,43.8
2022-08-09T04:07:00.323Z,43.8
2022-08-09T04:08:00.391Z,43.9
2022-08-09T04:09:00.315Z,44.1
2022-08-09T04:10:00.297Z,43.8
2022-08-09T04:11:01.647Z,43.9
2022-08-09T04:12:00.390Z,43.9
2022-08-09T04:13:01.149Z,43.6
2022-08-09T04:14:53.917Z,43.8
2022-08-09T04:15:11.347Z,44.0
2022-08-09T04:16:18.111Z,44.2
2022-08-09T04:17:00.312Z,44.2
2022-08-09T04:18:00.296Z,44.0
2022-08-09T04:19:00.410Z,44.1
2022-08-09T04:20:02.644Z,44.2
2022-08-09T04:21:00.301Z,44.1
2022-08-09T04:22:00.535Z,44.2
2022-08-09T04:23:00.303Z,44.1
2022-08-09T04:24:00.357Z,44.0
2022-08-09T04:25:01.449Z,44.1
2022-08-09T04:26:00.300Z,44.2
2022-08-09T04:27:00.378Z,44.3
2022-08-09T04:28:03.605Z,44.3
2022-08-09T04:29:02.450Z,44.2
2022-08-09T04:30:00.304Z,44.2
2022-08-09T04:31:00.314Z,44.4
2022-08-09T04:32:00.318Z,44.4
2022-08-09T04:33:01.260Z,45.0
2022-08-09T04:34:00.505Z,44.9
2022-08-09T04:35:01.372Z,44.9
2022-08-09T04:36:00.301Z,44.7
2022-08-09T04:37:00.309Z,44.5
2022-08-09T04:38:03.624Z,44.4
2022-08-09T04:39:00.301Z,44.0
2022-08-09T04:40:00.384Z,43.8
2022-08-09T04:41:00.313Z,43.5
2022-08-09T04:42:02.745Z,43.5
2022-08-09T04:43:00.332Z,43.3
2022-08-09T04:44:06.397Z,43.1
2022-08-09T04:45:00.324Z,42.8
2022-08-09T04:46:00.328Z,42.8
2022-08-09T04:47:04.375Z,42.5
2022-08-09T04:48:04.052Z,42.3
2022-08-09T04:49:00.382Z,42.0
2022-08-09T04:50:00.294Z,41.1
2022-08-09T04:51:00.310Z,40.5
2022-08-09T04:52:00.294Z,40.1
2022-08-09T04:53:00.321Z,39.4
2022-08-09T04:54:00.400Z,39.4
2022-08-09T04:55:00.309Z,39.3
2022-08-09T04:56:00.317Z,39.0
2022-08-09T04:57:00.315Z,38.6
2022-08-09T04:58:01.768Z,38.4
2022-08-09T04:59:03.712Z,37.6
2022-08-09T05:00:00.343Z,36.9
2022-08-09T05:01:00.337Z,35.7
2022-08-09T05:02:02.923Z,36.1
2022-08-09T05:03:00.466Z,35.7
2022-08-09T05:04:00.497Z,35.4
2022-08-09T05:05:09.588Z,35.4
2022-08-09T05:06:06.621Z,35.7
2022-08-09T05:07:00.296Z,35.8
2022-08-09T05:08:00.311Z,35.5
2022-08-09T05:09:01.285Z,35.6
2022-08-09T05:10:02.026Z,35.7
2022-08-09T05:11:01.129Z,35.0
2022-08-09T05:12:00.390Z,35.0
2022-08-09T05:13:00.295Z,34.6
2022-08-09T05:14:00.289Z,33.7
2022-08-09T05:15:00.316Z,34.2
2022-08-09T05:16:00.305Z,34.1
2022-08-09T05:17:00.343Z,32.1
2022-08-09T05:18:39.482Z,32.3
2022-08-09T05:19:02.750Z,32.4
2022-08-09T05:20:00.372Z,33.2
2022-08-09T05:21:00.315Z,33.2
2022-08-09T05:22:00.321Z,32.3
2022-08-09T05:23:54.577Z,30.7
2022-08-09T05:24:04.105Z,31.5
2022-08-09T05:25:00.981Z,31.9
2022-08-09T05:26:00.332Z,31.6
2022-08-09T05:27:00.295Z,30.9
2022-08-09T05:28:00.308Z,31.5
2022-08-09T05:29:00.312Z,30.7
2022-08-09T05:30:00.324Z,31.1
2022-08-09T05:31:00.384Z,29.1
2022-08-09T05:32:00.324Z,28.0
2022-08-09T05:33:00.322Z,28.1
2022-08-09T05:34:00.399Z,26.1
2022-08-09T05:35:00.497Z,25.1
2022-08-09T05:36:00.305Z,24.3
2022-08-09T05:37:01.745Z,24.2
2022-08-09T05:38:00.347Z,24.4
2022-08-09T05:39:00.357Z,23.9
2022-08-09T05:40:00.478Z,25.5
2022-08-09T05:41:00.318Z,24.6
2022-08-09T05:42:02.850Z,24.7
2022-08-09T05:43:00.382Z,25.2
2022-08-09T05:44:00.312Z,24.5
2022-08-09T05:45:00.384Z,23.8
2022-08-09T05:46:00.309Z,23.6
2022-08-09T05:47:00.316Z,22.7
2022-08-09T05:48:01.249Z,22.2
2022-08-09T05:49:00.407Z,23.1
2022-08-09T05:50:34.967Z,22.1
2022-08-09T05:51:16.785Z,24.0
2022-08-09T05:52:00.323Z,24.8
2022-08-09T05:53:00.314Z,22.9
2022-08-09T05:54:00.328Z,23.2
2022-08-09T05:55:03.161Z,23.8
2022-08-09T05:56:01.532Z,23.2
2022-08-09T05:57:00.338Z,22.6
2022-08-09T05:58:00.316Z,22.6
2022-08-09T05:59:00.308Z,22.2
2022-08-09T06:00:00.327Z,22.2
2022-08-09T06:01:00.417Z,22.0
2022-08-09T06:02:00.304Z,21.9
2022-08-09T06:03:00.480Z,21.9
2022-08-09T06:04:00.360Z,22.0
2022-08-09T06:05:00.308Z,21.7
2022-08-09T06:06:05.871Z,21.3
2022-08-09T06:07:00.299Z,22.0
2022-08-09T06:08:05.498Z,21.9
2022-08-09T06:09:00.390Z,21.8
2022-08-09T06:10:02.758Z,21.3
2022-08-09T06:11:00.331Z,21.2
2022-08-09T06:12:00.452Z,21.3
2022-08-09T06:13:11.665Z,21.2
2022-08-09T06:14:00.310Z,21.5
2022-08-09T06:15:01.812Z,21.4
2022-08-09T06:16:00.323Z,21.1
2022-08-09T06:17:00.336Z,21.3
2022-08-09T06:18:00.435Z,21.3
2022-08-09T06:19:00.307Z,21.3
2022-08-09T06:20:00.317Z,21.4
2022-08-09T06:21:00.486Z,21.6
2022-08-09T06:22:00.343Z,21.9
2022-08-09T06:23:00.335Z,22.3
2022-08-09T06:24:02.546Z,22.5
2022-08-09T06:25:00.298Z,22.6
2022-08-09T06:26:00.317Z,22.4
2022-08-09T06:27:00.618Z,22.3
2022-08-09T06:28:00.310Z,22.6
2022-08-09T06:29:05.245Z,22.6
2022-08-09T06:30:08.918Z,22.7
2022-08-09T06:31:00.353Z,22.8
2022-08-09T06:32:08.940Z,23.3
2022-08-09T06:33:30.077Z,23.7
2022-08-09T06:34:00.320Z,23.8
2022-08-09T06:35:00.328Z,23.4
2022-08-09T06:36:00.332Z,23.9
2022-08-09T06:37:00.426Z,24.0
2022-08-09T06:38:05.781Z,23.6
2022-08-09T06:39:02.401Z,23.7
2022-08-09T06:40:02.590Z,23.8
2022-08-09T06:41:00.305Z,23.7
2022-08-09T06:42:09.396Z,23.7
2022-08-09T06:43:00.382Z,23.1
2022-08-09T06:44:00.315Z,22.5
2022-08-09T06:45:00.507Z,22.2
2022-08-09T06:46:06.707Z,23.0
2022-08-09T06:47:00.296Z,23.7
2022-08-09T06:48:00.597Z,24.0
2022-08-09T06:49:00.642Z,23.8
2022-08-09T06:50:14.575Z,23.8
2022-08-09T06:51:00.328Z,23.6
2022-08-09T06:52:00.332Z,23.6
2022-08-09T06:53:00.342Z,23.2
2022-08-09T06:54:00.983Z,23.1
2022-08-09T06:55:00.402Z,23.1
2022-08-09T06:56:00.378Z,23.1
2022-08-09T06:57:00.361Z,23.1
2022-08-09T06:58:02.622Z,23.1
2022-08-09T07:00:52.912Z,23.2
2022-08-09T07:00:55.692Z,22.9
2022-08-09T07:01:00.529Z,23.1
2022-08-09T07:02:04.481Z,23.1
2022-08-09T07:03:00.305Z,23.4
2022-08-09T07:04:03.748Z,23.4
2022-08-09T07:05:00.433Z,23.8
2022-08-09T07:06:03.851Z,23.4
2022-08-09T07:07:01.026Z,23.1
2022-08-09T07:08:01.791Z,22.9
2022-08-09T07:09:00.310Z,22.6
2022-08-09T07:10:17.926Z,22.4
2022-08-09T07:11:00.363Z,22.4
2022-08-09T07:12:00.302Z,22.2
2022-08-09T07:13:00.410Z,22.4
2022-08-09T07:14:05.530Z,22.8
2022-08-09T07:15:00.376Z,22.8
2022-08-09T07:16:41.708Z,23.1
2022-08-09T07:17:00.309Z,23.2
2022-08-09T07:18:02.305Z,23.2
2022-08-09T07:19:00.329Z,23.2
2022-08-09T07:20:00.451Z,23.3
2022-08-09T07:21:00.430Z,23.4
2022-08-09T07:22:00.302Z,23.4
2022-08-09T07:23:00.307Z,23.2
2022-08-09T07:24:00.333Z,23.5
2022-08-09T07:25:00.326Z,23.3
2022-08-09T07:26:02.673Z,23.6
2022-08-09T07:27:00.647Z,23.7
2022-08-09T07:28:00.309Z,23.5
2022-08-09T07:29:01.260Z,23.3
2022-08-09T07:30:00.380Z,23.3
2022-08-09T07:31:00.418Z,23.5
2022-08-09T07:32:00.383Z,23.7
2022-08-09T07:33:00.301Z,23.9
2022-08-09T07:34:00.304Z,23.8
2022-08-09T07:35:00.307Z,24.0
2022-08-09T07:36:00.401Z,23.9
2022-08-09T07:37:02.646Z,24.3
2022-08-09T07:38:00.495Z,24.2
2022-08-09T07:39:00.995Z,24.6
2022-08-09T07:40:00.448Z,24.5
2022-08-09T07:41:11.444Z,24.9
2022-08-09T07:42:00.412Z,25.1
2022-08-09T07:43:00.332Z,25.2
2022-08-09T07:44:00.324Z,24.6
2022-08-09T07:45:06.295Z,24.5
2022-08-09T07:46:03.016Z,24.3
2022-08-09T07:47:00.322Z,24.3
2022-08-09T07:48:04.107Z,24.7
2022-08-09T07:49:00.494Z,25.3
2022-08-09T07:50:07.811Z,25.4
2022-08-09T07:51:10.215Z,25.8
2022-08-09T07:52:04.614Z,26.1
2022-08-09T07:53:02.950Z,25.9
2022-08-09T07:54:07.037Z,25.5
2022-08-09T07:55:00.326Z,26.1
2022-08-09T07:56:02.751Z,26.0
2022-08-09T07:57:00.295Z,25.8
2022-08-09T07:58:00.443Z,25.6
2022-08-09T07:59:00.372Z,25.6
2022-08-09T08:00:03.441Z,25.6
2022-08-09T08:01:06.767Z,25.3
2022-08-09T08:02:00.410Z,25.3
2022-08-09T08:03:00.352Z,25.2
2022-08-09T08:04:00.509Z,25.6
2022-08-09T08:05:00.390Z,26.0
2022-08-09T08:06:00.335Z,25.9
2022-08-09T08:07:15.172Z,26.4
2022-08-09T08:09:01.275Z,26.9
2022-08-09T08:09:04.408Z,27.7
2022-08-09T08:10:08.100Z,27.3
2022-08-09T08:12:07.724Z,26.9
2022-08-09T08:12:09.896Z,26.6
2022-08-09T08:13:00.328Z,26.7
2022-08-09T08:14:00.313Z,26.4
2022-08-09T08:15:00.381Z,26.2
2022-08-09T08:16:00.316Z,25.9
2022-08-09T08:17:07.831Z,25.7
2022-08-09T08:18:00.319Z,25.7
2022-08-09T08:19:02.836Z,25.9
2022-08-09T08:20:00.332Z,25.7
2022-08-09T08:21:00.404Z,25.3
2022-08-09T08:22:00.385Z,25.7
2022-08-09T08:23:03.428Z,25.1
2022-08-09T08:24:01.042Z,25.5
2022-08-09T08:25:00.313Z,25.6
2022-08-09T08:26:08.236Z,25.1
2022-08-09T08:27:00.413Z,25.0
2022-08-09T08:28:00.301Z,24.4
2022-08-09T08:29:00.298Z,24.1
2022-08-09T08:30:04.328Z,24.5
2022-08-09T08:31:04.907Z,24.7
2022-08-09T08:32:03.966Z,25.0
2022-08-09T08:33:00.514Z,24.8
2022-08-09T08:34:00.312Z,24.8
2022-08-09T08:35:00.299Z,25.5
2022-08-09T08:36:03.569Z,25.8
2022-08-09T08:37:01.401Z,25.9
2022-08-09T08:38:04.705Z,26.0
2022-08-09T08:39:00.539Z,25.4
2022-08-09T08:40:00.456Z,25.2
2022-08-09T08:41:01.757Z,25.3
2022-08-09T08:42:00.318Z,25.3
2022-08-09T08:43:00.323Z,24.9
2022-08-09T08:44:02.655Z,24.6
2022-08-09T08:45:00.311Z,24.2
2022-08-09T08:46:32.565Z,24.5
2022-08-09T08:47:04.446Z,24.6
2022-08-09T08:48:00.335Z,24.6
2022-08-09T08:49:00.301Z,24.7
2022-08-09T08:50:02.731Z,25.0
2022-08-09T08:51:00.326Z,24.9
2022-08-09T08:52:04.020Z,25.0
2022-08-09T08:53:00.878Z,24.9
2022-08-09T08:54:03.455Z,24.7
2022-08-09T08:55:01.245Z,24.7
2022-08-09T08:56:00.514Z,24.8
2022-08-09T08:57:00.360Z,25.4
2022-08-09T08:58:00.401Z,25.3
2022-08-09T08:59:00.445Z,25.1
2022-08-09T09:00:00.378Z,24.8
2022-08-09T09:01:00.626Z,24.7
2022-08-09T09:02:00.331Z,24.8
2022-08-09T09:03:08.347Z,24.5
2022-08-09T09:04:00.369Z,24.9
2022-08-09T09:05:02.969Z,24.8
2022-08-09T09:06:04.571Z,24.6
2022-08-09T09:07:00.653Z,24.6
2022-08-09T09:08:00.294Z,24.8
2022-08-09T09:09:00.322Z,25.0
2022-08-09T09:10:04.771Z,25.3
2022-08-09T09:11:00.406Z,25.1
2022-08-09T09:12:00.328Z,25.0
2022-08-09T09:13:00.427Z,25.7
2022-08-09T09:14:00.313Z,26.0
2022-08-09T09:15:00.313Z,25.9
2022-08-09T09:16:00.286Z,26.0
2022-08-09T09:17:00.404Z,26.4
2022-08-09T09:18:00.324Z,26.3
2022-08-09T09:19:21.609Z,26.0
2022-08-09T09:20:01.107Z,25.7
2022-08-09T09:21:00.335Z,25.6
2022-08-09T09:22:00.713Z,25.7
2022-08-09T09:23:01.895Z,25.8
2022-08-09T09:24:04.703Z,26.2
2022-08-09T09:26:01.158Z,26.3
2022-08-09T09:26:12.018Z,26.5
2022-08-09T09:27:00.329Z,26.8
2022-08-09T09:28:04.300Z,26.5
2022-08-09T09:29:03.472Z,26.3
2022-08-09T09:30:11.436Z,25.7
2022-08-09T09:31:00.548Z,25.8
2022-08-09T09:32:15.143Z,25.7
2022-08-09T09:33:00.394Z,25.5
2022-08-09T09:34:00.297Z,25.3
2022-08-09T09:35:00.411Z,25.6
2022-08-09T09:36:01.820Z,25.3
2022-08-09T09:37:00.339Z,25.5
2022-08-09T09:38:00.487Z,25.6
2022-08-09T09:39:00.432Z,25.5
2022-08-09T09:40:00.729Z,25.3
2022-08-09T09:41:00.524Z,24.9
2022-08-09T09:42:00.474Z,24.2
2022-08-09T09:43:00.410Z,24.4
2022-08-09T09:44:11.576Z,25.1
2022-08-09T09:45:00.491Z,24.9
2022-08-09T09:47:00.459Z,25.0
2022-08-09T09:48:00.361Z,25.4
2022-08-09T09:49:00.296Z,25.1
2022-08-09T09:50:14.110Z,25.0
2022-08-09T09:51:00.282Z,25.5
2022-08-09T09:52:00.423Z,24.8
2022-08-09T09:53:00.588Z,24.8
2022-08-09T09:54:01.663Z,25.1
2022-08-09T09:55:00.300Z,24.9
2022-08-09T09:56:04.166Z,25.4
2022-08-09T09:58:02.411Z,24.4
2022-08-09T09:58:15.619Z,24.7
2022-08-09T09:59:00.317Z,24.6
2022-08-09T10:00:00.273Z,24.5
2022-08-09T10:01:00.327Z,24.6
2022-08-09T10:02:00.366Z,24.6
2022-08-09T10:03:00.423Z,24.7
2022-08-09T10:04:03.258Z,24.7
2022-08-09T10:05:00.314Z,24.9
2022-08-09T10:06:01.387Z,24.6
2022-08-09T10:07:03.670Z,24.7
2022-08-09T10:08:11.119Z,24.4
2022-08-09T10:09:00.396Z,24.2
2022-08-09T10:10:03.230Z,24.1
2022-08-09T10:11:06.909Z,23.9
2022-08-09T10:12:14.376Z,23.6
2022-08-09T10:13:00.337Z,23.5
2022-08-09T10:14:00.392Z,23.2
2022-08-09T10:15:00.305Z,23.3
2022-08-09T10:16:54.485Z,23.5
2022-08-09T10:17:11.265Z,23.8
2022-08-09T10:18:00.288Z,23.7
2022-08-09T10:19:00.311Z,24.4
2022-08-09T10:20:00.677Z,24.4
2022-08-09T10:21:00.338Z,24.5
2022-08-09T10:22:00.424Z,24.7
2022-08-09T10:23:00.835Z,24.7
2022-08-09T10:24:00.318Z,24.4
2022-08-09T10:25:11.031Z,24.0
2022-08-09T10:26:04.865Z,23.8
2022-08-09T10:27:00.308Z,24.2
2022-08-09T10:28:00.355Z,24.1
2022-08-09T10:29:32.781Z,23.5
2022-08-09T10:30:49.490Z,23.6
2022-08-09T10:32:28.594Z,23.6
2022-08-09T10:33:00.305Z,23.5
2022-08-09T10:34:11.399Z,23.5
2022-08-09T10:35:00.307Z,23.4
2022-08-09T10:36:01.153Z,23.8
2022-08-09T10:37:00.423Z,23.7
2022-08-09T10:38:00.364Z,23.2
2022-08-09T10:39:00.594Z,23.0
2022-08-09T10:40:00.376Z,23.3
2022-08-09T10:41:00.430Z,23.9
2022-08-09T10:42:00.300Z,24.2
2022-08-09T10:43:00.516Z,24.1
2022-08-09T10:44:01.916Z,24.2
2022-08-09T10:45:00.310Z,24.0
2022-08-09T10:46:00.400Z,24.0
2022-08-09T10:47:01.065Z,23.9
2022-08-09T10:48:16.812Z,23.7
2022-08-09T10:49:00.296Z,23.7
2022-08-09T10:50:00.376Z,23.6
2022-08-09T10:51:00.325Z,23.6
2022-08-09T10:52:00.311Z,23.7
2022-08-09T10:53:00.351Z,23.6
2022-08-09T10:54:04.639Z,23.8
2022-08-09T10:55:00.397Z,23.6
2022-08-09T10:56:00.497Z,23.4
2022-08-09T10:57:00.459Z,23.2
2022-08-09T10:58:00.694Z,23.3
2022-08-09T10:59:00.309Z,23.2
2022-08-09T11:00:01.842Z,23.2
2022-08-09T11:03:05.636Z,23.3
2022-08-09T11:03:14.130Z,23.1
2022-08-09T11:03:15.302Z,23.2
2022-08-09T11:04:04.125Z,23.4
2022-08-09T11:05:00.370Z,23.3
2022-08-09T11:06:01.016Z,23.1
2022-08-09T11:07:01.177Z,23.1
2022-08-09T11:08:00.310Z,23.2
2022-08-09T11:09:08.643Z,22.9
2022-08-09T11:10:00.294Z,22.4
2022-08-09T11:11:08.460Z,22.5
2022-08-09T11:12:00.373Z,22.6
2022-08-09T11:13:00.461Z,22.8
2022-08-09T11:14:00.336Z,22.6
2022-08-09T11:15:00.311Z,22.8
2022-08-09T11:16:04.816Z,22.6
2022-08-09T11:17:00.349Z,22.6
2022-08-09T11:18:03.911Z,22.2
2022-08-09T11:19:00.428Z,22.1
2022-08-09T11:20:11.572Z,22.0
2022-08-09T11:21:00.377Z,21.7
2022-08-09T11:22:16.558Z,22.1
2022-08-09T11:23:00.365Z,21.5
2022-08-09T11:24:00.311Z,22.1
2022-08-09T11:25:00.464Z,22.0
2022-08-09T11:26:00.495Z,22.0
2022-08-09T11:27:00.460Z,21.8
2022-08-09T11:28:07.954Z,21.7
2022-08-09T11:29:00.340Z,22.0
2022-08-09T11:30:04.169Z,21.9
2022-08-09T11:31:00.302Z,22.2
2022-08-09T11:32:00.414Z,21.8
2022-08-09T11:33:00.278Z,21.9
2022-08-09T11:34:00.301Z,21.8
2022-08-09T11:35:00.326Z,21.6
2022-08-09T11:36:00.418Z,21.8
2022-08-09T11:37:00.297Z,21.8
2022-08-09T11:38:00.367Z,22.5
2022-08-09T11:39:00.287Z,22.2
2022-08-09T11:40:00.425Z,22.0
2022-08-09T11:41:00.320Z,22.1
2022-08-09T11:42:00.398Z,22.1
2022-08-09T11:43:00.297Z,22.2
2022-08-09T11:44:00.303Z,22.2
2022-08-09T11:45:00.324Z,22.2
2022-08-09T11:46:00.312Z,22.3
2022-08-09T11:47:00.298Z,22.0
2022-08-09T11:48:08.185Z,21.6
2022-08-09T11:49:00.353Z,21.4
2022-08-09T11:50:55.202Z,21.2
2022-08-09T11:52:48.660Z,21.4
2022-08-09T11:53:03.269Z,21.3
2022-08-09T11:53:59.604Z,21.1
2022-08-09T11:54:04.280Z,20.9
2022-08-09T11:55:00.386Z,21.2
2022-08-09T11:56:02.627Z,21.3
2022-08-09T11:57:00.304Z,21.4
2022-08-09T11:58:02.313Z,21.5
2022-08-09T11:59:00.400Z,21.3
2022-08-09T12:00:00.298Z,21.4
2022-08-09T12:01:00.309Z,21.3
2022-08-09T12:02:17.807Z,21.5
2022-08-09T12:03:00.344Z,21.2
2022-08-09T12:04:00.471Z,21.2
2022-08-09T12:05:00.441Z,21.4
2022-08-09T12:06:00.328Z,21.4
2022-08-09T12:07:00.323Z,21.4
2022-08-09T12:08:00.297Z,21.1
2022-08-09T12:09:00.375Z,20.6
2022-08-09T12:10:00.408Z,21.0
2022-08-09T12:11:00.579Z,21.2
2022-08-09T12:12:03.175Z,21.3
2022-08-09T12:13:00.413Z,21.0
2022-08-09T12:14:09.658Z,21.3
2022-08-09T12:15:07.675Z,21.6
2022-08-09T12:16:00.426Z,22.0
2022-08-09T12:17:00.309Z,22.4
2022-08-09T12:18:00.285Z,22.4
2022-08-09T12:19:00.329Z,22.8
2022-08-09T12:20:00.335Z,23.2
2022-08-09T12:21:02.713Z,23.2
2022-08-09T12:22:00.399Z,23.6
2022-08-09T12:23:00.370Z,23.4
2022-08-09T12:24:09.046Z,23.2
2022-08-09T12:25:00.419Z,22.7
2022-08-09T12:26:00.428Z,22.7
2022-08-09T12:28:58.427Z,22.3
2022-08-09T12:29:11.996Z,22.6
2022-08-09T12:29:29.981Z,22.4
2022-08-09T12:30:35.500Z,22.4
2022-08-09T12:31:00.311Z,22.1
2022-08-09T12:32:02.906Z,22.1
2022-08-09T12:33:00.314Z,21.8
2022-08-09T12:34:01.418Z,21.8
2022-08-09T12:35:03.162Z,21.7
2022-08-09T12:36:00.398Z,21.6
2022-08-09T12:37:09.830Z,21.6
2022-08-09T12:38:00.408Z,21.5
2022-08-09T12:39:00.304Z,21.5
2022-08-09T12:40:00.312Z,21.6
2022-08-09T12:41:00.414Z,21.5
2022-08-09T12:42:00.312Z,21.5
2022-08-09T12:43:00.316Z,21.3
2022-08-09T12:44:06.802Z,20.9
2022-08-09T12:45:00.422Z,21.3
2022-08-09T12:46:00.795Z,21.2
2022-08-09T12:47:00.319Z,21.3
2022-08-09T12:48:00.291Z,21.4
2022-08-09T12:49:00.307Z,21.2
2022-08-09T12:50:00.376Z,21.3
2022-08-09T12:51:03.690Z,21.2
2022-08-09T12:52:03.035Z,21.3
2022-08-09T12:53:08.812Z,21.4
2022-08-09T12:54:00.624Z,21.4
2022-08-09T12:56:12.964Z,21.4
2022-08-09T12:56:14.986Z,21.4
2022-08-09T12:57:00.289Z,21.5
2022-08-09T12:58:00.310Z,21.5
2022-08-09T12:59:00.385Z,21.7
2022-08-09T13:00:03.754Z,21.7
2022-08-09T13:01:00.355Z,22.0
2022-08-09T13:02:00.350Z,22.0
2022-08-09T13:03:00.307Z,22.0
2022-08-09T13:04:00.395Z,22.0
2022-08-09T13:05:00.333Z,22.1
2022-08-09T13:06:11.465Z,22.1
2022-08-09T13:07:00.356Z,22.1
2022-08-09T13:08:00.302Z,21.7
2022-08-09T13:09:01.044Z,22.0
2022-08-09T13:10:01.251Z,22.1
2022-08-09T13:11:00.335Z,22.3
2022-08-09T13:12:02.058Z,21.9
2022-08-09T13:13:10.172Z,22.0
2022-08-09T13:14:38.607Z,21.9
2022-08-09T13:15:00.296Z,22.0
2022-08-09T13:16:00.307Z,22.0
2022-08-09T13:17:01.045Z,22.1
2022-08-09T13:18:05.363Z,21.9
2022-08-09T13:19:00.473Z,22.2
2022-08-09T13:20:10.183Z,22.4